Granada, Nicaragua

12:28 PM CST en Febrero 06, 2016 (GMT -0600)
Augusto Cesar Sandino | | Change Station
CLOSE
Current Station
Aeropuerto
Location: Managua,
Altura: 184 ft
Estaciones meteorológicas cercanas

Alt 184 ft 12.14 °N, 86.17 °W | Updated 28 minutes ago

Partly Cloudy
Parcialmente nublado
91 ° F
Sensación térmica 98 ° F
N
23
Viento Variable Viento desde Este

Hoy
Alta -- | Baja -- ° F
--% Posibilidad de precipitaciones
Ayer
Alta -- | Baja -- ° F
Precip. -- pul
Presión 29.89 pul
Visibilidad 6.2 Millas
Nubes Baja 2400 ft
Índice de calor 98 ° F
Punto de rocío 72 ° F
Humedad 52%
Precipitaciones 0.00 pul
Espesor de la nieve No disponible.
6:07 AM 5:47 PM
Creciente menguante, 4% visible
METAR MNMG 061800Z 10020KT 9999 FEW024 33/22 Q1012 A2988 NOSIG
Presión 29.89 pul
Visibilidad 6.2 Millas
Nubes Baja 2400 ft
Índice de calor 98 ° F
Punto de rocío 72 ° F
Humedad 52%
Precipitaciones 0.00 pul
Espesor de la nieve No disponible.
6:07 AM 5:47 PM
Creciente menguante, 4% visible
METAR MNMG 061800Z 10020KT 9999 FEW024 33/22 Q1012 A2988 NOSIG

10-Day Weather Forecast

No radar image for this location.
×

Almanac

Astronomía

Feb. 06, 2016 Salida Puesta
Hora real
Crepúsculo civil
Crepúsculo náutico
Crepúsculo astronómico
Luna
Horas de luz
Horas de luz
Tomorrow will be .
, % of the Moon is Illuminated

Extremos de hoy

Máximos del país Bajas del país

Community

WunderPhotos

Upload Photos

1,891,030 ¡fotos cargadas!

WunderBlog® & News

Nearby

Calidad del aire

  Calidad del aire Índice AQ Contaminante
Not available.

Grosos de nieve

Estación Profundido Altura

Actividad de terremotos

Ciudad Distance Mag. Tiempo y dato
Magnitud mínima muestra es 2,5.

Temperaturas de aguas costeras

Lugar Temperatura

Stations

Estaciones meteorológicas cercanas

Ubicación de la estación Temp. Vientos helados Punto de rocío Humedad Viento Precip. Alt Actualizado Tipo